Flight Track Log - Related Links

Times and Time Zones

All times are in EDT time to prevent confusion due to time zone crossing. See the N612CT flight status page for this flight to view local times or setup timezone preferences in your user account.

Time Position Orientation Groundspeed Altitude Reporting Facility
EDT Latitude Longitude Course Direction KTS MPH feet Rate Location/Type
Mon 05:18:00 PM 26.3790 -81.9074 355° North  Level Estimated
Mon 05:19:00 PM 26.4216 -81.9050 North  Level FlightAware Approximate
Mon 05:20:00 PM 26.4641 -81.9026 North  Level FlightAware Approximate
Mon 05:21:00 PM 26.5067 -81.9003 North  Level FlightAware Approximate
Mon 05:22:00 PM 26.5492 -81.8979 North  Level FlightAware Approximate
Mon 05:23:00 PM 26.5917 -81.8955 North  Level FlightAware Approximate
Mon 05:24:00 PM 26.6343 -81.8931 North  Level FlightAware Approximate
Mon 05:25:00 PM 26.6768 -81.8907 North  Level FlightAware Approximate
Mon 05:25:16 PM 26.6872 -81.8783 North 160 184 10,000  Level Miami Center
Mon 05:26:00 PM 26.7194 -81.8883 North  Level FlightAware Approximate
Mon 05:26:16 PM 26.7331 -81.8825 355° North 160 184 10,000  Level Miami Center
Mon 05:27:00 PM 26.7619 -81.8858 North  Level FlightAware Approximate
Mon 05:27:16 PM 26.7872 -81.8872 356° North 165 190 10,000  Level Miami Center
Mon 05:28:00 PM 26.8038 -81.8835 North  Level FlightAware Approximate
Mon 05:28:16 PM 26.8308 -81.8914 355° North 165 190 10,000  Level Miami Center
Mon 05:29:00 PM 26.8457 -81.8811 North  Level FlightAware Approximate
Mon 05:29:16 PM 26.8767 -81.8981 353° North 165 190 10,000  Level Miami Center
Mon 05:30:16 PM 26.9267 -81.9025 355° North 170 196 10,000  Level Miami Center
Mon 05:31:16 PM 26.9744 -81.9069 355° North 170 196 10,000  Level Miami Center
Mon 05:32:16 PM 27.0142 -81.9086 358° North 185 213 10,000  Level Miami Center
Mon 05:33:16 PM 27.0617 -81.9178 350° North 185 213 10,000  Level Miami Center
Mon 05:34:16 PM 27.0992 -81.9194 358° North 174 200 10,000  Level Miami Center
Mon 05:35:16 PM 27.1553 -81.9264 354° North 174 200 10,000  Level Miami Center
Mon 05:36:16 PM 27.2031 -81.9308 355° North 169 194 10,000  Level Miami Center
Mon 05:37:16 PM 27.2489 -81.9353 355° North 169 194 10,000 50 Level Miami Center
Mon 05:38:16 PM 27.2967 -81.9397 355° North 164 189 10,100 50 Climbing Miami Center
Mon 05:39:16 PM 27.3444 -81.9464 353° North 164 189 10,100  Level Miami Center
Mon 05:40:16 PM 27.3925 -81.9508 355° North 164 189 10,100  Level Miami Center
Mon 05:41:16 PM 27.4381 -81.9553 355° North 159 183 10,100  Level Miami Center
Mon 05:42:16 PM 27.4839 -81.9597 355° North 159 183 10,100  Level Miami Center
Mon 05:43:16 PM 27.5317 -81.9664 353° North 159 183 10,100  Level Miami Center
Mon 05:44:16 PM 27.5775 -81.9686 358° North 159 183 10,100  Level Miami Center
Mon 05:45:16 PM 27.6231 -81.9753 353° North 159 183 10,100 -50 Level Miami Center
Mon 05:46:16 PM 27.6772 -81.9775 358° North 159 183 10,000 -50 Descending Miami Center
Mon 05:47:16 PM 27.7272 -81.9844 353° North 170 196 10,000  Level Miami Center
Mon 05:48:16 PM 27.7750 -81.9892 355° North 170 196 10,000  Level Miami Center
Mon 05:49:16 PM 27.8144 -81.9956 352° North 165 190 10,000  Level Miami Center
Mon 05:50:16 PM 27.8600 -82.0022 353° North 165 190 10,000  Level Miami Center
Mon 05:50:55 PM 27.9000 -82.0000 North 169 194 10,000  Level Tampa TRACON
Mon 05:51:55 PM 27.9500 -82.0167 344° North 167 192 10,000  Level Tampa TRACON
Mon 05:52:55 PM 27.9833 -82.0167 360° North 168 193 10,000  Level Tampa TRACON
Mon 05:53:55 PM 28.0333 -82.0500 330° Northwest 171 197 10,000  Level Tampa TRACON
Mon 05:54:55 PM 28.0833 -82.0500 360° North 164 189 10,000  Level Tampa TRACON
Mon 05:55:55 PM 28.1167 -82.0667 336° Northwest 165 190 10,000  Level Tampa TRACON
Mon 05:56:55 PM 28.1667 -82.0833 344° North 170 196 10,000  Level Tampa TRACON
Mon 05:58:01 PM 28.2167 -82.0833 360° North 168 193 10,000  Level Tampa TRACON
Mon 05:59:01 PM 28.2667 -82.1000 344° North 166 191 10,000  Level Tampa TRACON
Mon 06:00:01 PM 28.3167 -82.1000 360° North 166 191 10,000  Level Tampa TRACON
Mon 06:01:01 PM 28.3500 -82.1167 336° Northwest 168 193 10,000  Level Tampa TRACON
Mon 06:02:01 PM 28.4000 -82.1333 344° North 166 191 10,000  Level Tampa TRACON
Mon 06:03:01 PM 28.4500 -82.1333 360° North 160 184 10,000  Level Tampa TRACON
Mon 06:04:02 PM 28.4833 -82.1500 336° Northwest 161 185 10,000  Level Tampa TRACON
Mon 06:05:02 PM 28.5167 -82.1833 319° Northwest 171 197 10,000  Level Tampa TRACON
Mon 06:05:56 PM 28.5500 -82.2167 319° Northwest 165 190 10,000  Level Tampa TRACON
Mon 06:08:05 PM 28.6056 -82.3108 304° West 165 190 10,000  Level Jacksonville Center
Mon 06:09:05 PM 28.6392 -82.3508 314° West 175 201 10,000  Level Jacksonville Center
Mon 06:10:06 PM 28.6728 -82.3933 312° West 179 206 10,000  Level Jacksonville Center
Mon 06:11:07 PM 28.7083 -82.4311 317° Northwest 175 201 10,000  Level Jacksonville Center
Mon 06:12:08 PM 28.7439 -82.4711 315° West 175 201 10,000  Level Jacksonville Center
Mon 06:13:03 PM 28.7733 -82.5089 312° West 178 205 10,000  Level Jacksonville Center
Mon 06:14:10 PM 28.8153 -82.5536 317° Northwest 178 205 10,000  Level Jacksonville Center
Mon 06:15:10 PM 28.8508 -82.5914 317° Northwest 177 204 10,000  Level Jacksonville Center
Mon 06:16:11 PM 28.8864 -82.6317 315° West 177 204 10,000  Level Jacksonville Center
Mon 06:17:06 PM 28.9197 -82.6672 317° Northwest 177 204 10,000  Level Jacksonville Center
Mon 06:18:07 PM 28.9553 -82.7075 315° West 180 207 10,000  Level Jacksonville Center
Mon 06:19:07 PM 28.9889 -82.7478 314° West 181 208 10,000  Level Jacksonville Center
Mon 06:20:02 PM 29.0244 -82.7858 317° Northwest 183 211 10,000  Level Jacksonville Center
Mon 06:20:55 PM 29.0556 -82.8189 317° Northwest 182 209 10,000  Level Jacksonville Center
Mon 06:21:15 PM 29.0683 -82.8333 315° West 178 205 10,000  Level Jacksonville Center
Mon 06:21:55 PM 29.0911 -82.8594 315° West 177 204 10,000  Level Jacksonville Center
Mon 06:22:55 PM 29.1267 -82.8997 315° West 177 204 10,000  Level Jacksonville Center
Mon 06:23:55 PM 29.1622 -82.9378 317° Northwest 177 204 10,000  Level Jacksonville Center
Mon 06:24:55 PM 29.1956 -82.9758 315° West 177 204 10,000  Level Jacksonville Center
Mon 06:25:55 PM 29.2331 -83.0186 315° West 177 204 10,000  Level Jacksonville Center
Mon 06:26:55 PM 29.2686 -83.0592 315° West 177 204 10,000  Level Jacksonville Center
Mon 06:27:55 PM 29.3039 -83.0997 315° West 177 204 10,000  Level Jacksonville Center
Mon 06:28:55 PM 29.3353 -83.1356 315° West 177 204 10,000  Level Jacksonville Center
Mon 06:29:55 PM 29.3728 -83.1761 317° Northwest 177 204 10,000  Level Jacksonville Center
Mon 06:30:55 PM 29.4081 -83.2167 315° West 177 204 10,000  Level Jacksonville Center
Mon 06:31:55 PM 29.4456 -83.2575 317° Northwest 172 198 10,000  Level Jacksonville Center
Mon 06:32:55 PM 29.4789 -83.2981 313° West 172 198 10,000  Level Jacksonville Center
Mon 06:33:55 PM 29.5161 -83.3389 316° Northwest 172 198 10,000  Level Jacksonville Center
Mon 06:34:55 PM 29.5517 -83.3797 315° West 172 198 10,000  Level Jacksonville Center
Mon 06:35:55 PM 29.5889 -83.4203 317° Northwest 172 198 10,000  Level Jacksonville Center
Mon 06:36:55 PM 29.6242 -83.4611 315° West 172 198 10,000  Level Jacksonville Center
Mon 06:37:55 PM 29.6597 -83.5019 315° West 172 198 10,000  Level Jacksonville Center
Mon 06:38:55 PM 29.6969 -83.5428 316° Northwest 172 198 10,000  Level Jacksonville Center
Mon 06:39:55 PM 29.7322 -83.5839 315° West 172 198 10,000  Level Jacksonville Center
Mon 06:40:55 PM 29.7675 -83.6247 315° West 172 198 10,000  Level Jacksonville Center
Mon 06:41:55 PM 29.8028 -83.6656 315° West 172 198 10,000  Level Jacksonville Center
Mon 06:42:55 PM 29.8358 -83.7042 315° West 172 198 10,000  Level Jacksonville Center
Mon 06:43:55 PM 29.8692 -83.7453 313° West 172 198 10,000  Level Jacksonville Center
Mon 06:44:55 PM 29.9064 -83.7839 318° Northwest 172 198 10,000 -100 Level Jacksonville Center
Mon 06:45:55 PM 29.9417 -83.8250 315° West 172 198 9,800 -500 Descending Jacksonville Center
Mon 06:46:55 PM 29.9789 -83.8686 315° West 178 205 9,000 -750 Descending Jacksonville Center
Mon 06:47:55 PM 30.0181 -83.9144 315° West 183 211 8,300 -750 Descending Jacksonville Center
Mon 06:48:55 PM 30.0575 -83.9606 315° West 195 224 7,500 -800 Descending Jacksonville Center
Mon 06:49:55 PM 30.0967 -84.0042 316° Northwest 195 224 6,700 -800 Descending Jacksonville Center
Mon 06:50:55 PM 30.1381 -84.0503 316° Northwest 195 224 5,900 -800 Descending Jacksonville Center
Mon 06:52:00 PM 30.1747 -84.0905 316° Northwest  Level FlightAware Approximate
Mon 06:59:00 PM 30.3833 -84.3500 311° West  Level FlightAware Approximate
Mon 07:00:00 PM 30.3967 -84.3509 311° West  Level Estimated
Mon 07:01:00 PM 30.3967 -84.3509 311° West  Level Estimated
Mon 07:02:00 PM 30.3967 -84.3509 311° West  Level Estimated

Login

Don't have an account? Register now (free) for customized features, flight alerts, and more!